sensor_id;sensor_type;location;lat;lon;timestamp;P1;durP1;ratioP1;P2;durP2;ratioP2
36745;SDS011;22715;52.182;21.206;2022-08-01T00:00:08;5.25;;;3.65;;
36745;SDS011;22715;52.182;21.206;2022-08-01T00:02:41;4.93;;;3.83;;
36745;SDS011;22715;52.182;21.206;2022-08-01T00:05:07;5.57;;;4.40;;
36745;SDS011;22715;52.182;21.206;2022-08-01T00:07:34;5.15;;;4.65;;
36745;SDS011;22715;52.182;21.206;2022-08-01T00:10:00;7.55;;;4.00;;
36745;SDS011;22715;52.182;21.206;2022-08-01T00:12:27;4.63;;;3.88;;
36745;SDS011;22715;52.182;21.206;2022-08-01T00:14:52;4.03;;;3.67;;
36745;SDS011;22715;52.182;21.206;2022-08-01T00:17:18;3.80;;;3.40;;
36745;SDS011;22715;52.182;21.206;2022-08-01T00:19:43;4.60;;;3.22;;
36745;SDS011;22715;52.182;21.206;2022-08-01T00:22:15;5.07;;;3.85;;
36745;SDS011;22715;52.182;21.206;2022-08-01T00:27:11;4.88;;;3.65;;
36745;SDS011;22715;52.182;21.206;2022-08-01T00:29:42;4.88;;;3.65;;
36745;SDS011;22715;52.182;21.206;2022-08-01T00:32:19;7.72;;;3.58;;
36745;SDS011;22715;52.182;21.206;2022-08-01T00:34:50;9.38;;;3.75;;
36745;SDS011;22715;52.182;21.206;2022-08-01T00:37:15;6.05;;;4.20;;
36745;SDS011;22715;52.182;21.206;2022-08-01T00:39:44;7.28;;;4.53;;
36745;SDS011;22715;52.182;21.206;2022-08-01T00:42:13;5.72;;;4.13;;
36745;SDS011;22715;52.182;21.206;2022-08-01T00:44:43;7.03;;;4.57;;
36745;SDS011;22715;52.182;21.206;2022-08-01T00:47:08;5.57;;;4.05;;
36745;SDS011;22715;52.182;21.206;2022-08-01T00:49:40;5.05;;;4.45;;
36745;SDS011;22715;52.182;21.206;2022-08-01T00:52:12;4.70;;;4.28;;
36745;SDS011;22715;52.182;21.206;2022-08-01T01:00:23;6.35;;;3.97;;
36745;SDS011;22715;52.182;21.206;2022-08-01T01:03:02;5.45;;;4.22;;
36745;SDS011;22715;52.182;21.206;2022-08-01T01:10:52;4.15;;;3.85;;
36745;SDS011;22715;52.182;21.206;2022-08-01T01:15:59;4.20;;;3.35;;
36745;SDS011;22715;52.182;21.206;2022-08-01T01:32:29;5.07;;;3.35;;
36745;SDS011;22715;52.182;21.206;2022-08-01T01:35:06;5.47;;;3.47;;
36745;SDS011;22715;52.182;21.206;2022-08-01T01:40:42;4.03;;;2.67;;
36745;SDS011;22715;52.182;21.206;2022-08-01T01:48:40;8.10;;;3.90;;
36745;SDS011;22715;52.182;21.206;2022-08-01T01:51:10;3.78;;;3.15;;
36745;SDS011;22715;52.182;21.206;2022-08-01T01:56:22;3.05;;;2.40;;
36745;SDS011;22715;52.182;21.206;2022-08-01T01:59:21;5.18;;;3.25;;
36745;SDS011;22715;52.182;21.206;2022-08-01T02:02:06;4.13;;;3.13;;
36745;SDS011;22715;52.182;21.206;2022-08-01T02:04:40;5.18;;;3.53;;
36745;SDS011;22715;52.182;21.206;2022-08-01T02:09:59;3.63;;;2.90;;
36745;SDS011;22715;52.182;21.206;2022-08-01T02:12:25;6.13;;;3.60;;
36745;SDS011;22715;52.182;21.206;2022-08-01T02:17:50;4.28;;;3.13;;
36745;SDS011;22715;52.182;21.206;2022-08-01T02:20:16;5.70;;;3.70;;
36745;SDS011;22715;52.182;21.206;2022-08-01T02:30:43;5.82;;;3.58;;
36745;SDS011;22715;52.182;21.206;2022-08-01T02:35:40;6.90;;;3.72;;
36745;SDS011;22715;52.182;21.206;2022-08-01T02:40:43;4.50;;;3.50;;
36745;SDS011;22715;52.182;21.206;2022-08-01T02:43:15;8.30;;;3.75;;
36745;SDS011;22715;52.182;21.206;2022-08-01T03:27:05;5.28;;;3.35;;
36745;SDS011;22715;52.182;21.206;2022-08-01T03:29:39;5.15;;;4.50;;
36745;SDS011;22715;52.182;21.206;2022-08-01T03:32:06;5.60;;;4.28;;
36745;SDS011;22715;52.182;21.206;2022-08-01T03:37:12;4.88;;;3.88;;
36745;SDS011;22715;52.182;21.206;2022-08-01T03:39:47;5.10;;;3.70;;
36745;SDS011;22715;52.182;21.206;2022-08-01T03:42:20;9.75;;;4.88;;
36745;SDS011;22715;52.182;21.206;2022-08-01T03:45:08;8.93;;;4.32;;
36745;SDS011;22715;52.182;21.206;2022-08-01T03:47:39;4.22;;;3.83;;
36745;SDS011;22715;52.182;21.206;2022-08-01T03:50:09;5.00;;;3.47;;
36745;SDS011;22715;52.182;21.206;2022-08-01T03:52:41;7.20;;;4.20;;
36745;SDS011;22715;52.182;21.206;2022-08-01T03:55:11;7.63;;;3.95;;
36745;SDS011;22715;52.182;21.206;2022-08-01T03:57:36;4.38;;;3.97;;
36745;SDS011;22715;52.182;21.206;2022-08-01T04:02:54;6.00;;;3.70;;
36745;SDS011;22715;52.182;21.206;2022-08-01T04:05:28;10.23;;;4.20;;
36745;SDS011;22715;52.182;21.206;2022-08-01T04:10:39;6.28;;;3.85;;
36745;SDS011;22715;52.182;21.206;2022-08-01T04:13:05;6.55;;;3.97;;
36745;SDS011;22715;52.182;21.206;2022-08-01T04:20:56;3.85;;;3.50;;
36745;SDS011;22715;52.182;21.206;2022-08-01T04:23:37;5.57;;;4.00;;
36745;SDS011;22715;52.182;21.206;2022-08-01T04:26:19;7.80;;;3.75;;
36745;SDS011;22715;52.182;21.206;2022-08-01T04:28:46;3.92;;;3.50;;
36745;SDS011;22715;52.182;21.206;2022-08-01T04:31:15;10.07;;;4.82;;
36745;SDS011;22715;52.182;21.206;2022-08-01T04:36:36;7.88;;;4.20;;
36745;SDS011;22715;52.182;21.206;2022-08-01T04:39:03;4.95;;;3.85;;
36745;SDS011;22715;52.182;21.206;2022-08-01T04:41:30;5.15;;;3.30;;
36745;SDS011;22715;52.182;21.206;2022-08-01T04:43:57;8.95;;;3.70;;
36745;SDS011;22715;52.182;21.206;2022-08-01T04:46:27;5.95;;;3.28;;
36745;SDS011;22715;52.182;21.206;2022-08-01T04:48:59;6.05;;;4.10;;
36745;SDS011;22715;52.182;21.206;2022-08-01T04:51:28;5.78;;;3.30;;
36745;SDS011;22715;52.182;21.206;2022-08-01T04:53:58;5.18;;;3.75;;
36745;SDS011;22715;52.182;21.206;2022-08-01T04:56:33;4.38;;;3.90;;
36745;SDS011;22715;52.182;21.206;2022-08-01T04:58:59;10.07;;;4.38;;
36745;SDS011;22715;52.182;21.206;2022-08-01T05:01:54;4.95;;;4.10;;
36745;SDS011;22715;52.182;21.206;2022-08-01T05:04:38;7.07;;;3.95;;
36745;SDS011;22715;52.182;21.206;2022-08-01T05:07:20;5.45;;;3.75;;
36745;SDS011;22715;52.182;21.206;2022-08-01T05:09:45;6.95;;;4.15;;
36745;SDS011;22715;52.182;21.206;2022-08-01T05:12:11;4.72;;;4.30;;
36745;SDS011;22715;52.182;21.206;2022-08-01T05:14:41;6.63;;;4.10;;
36745;SDS011;22715;52.182;21.206;2022-08-01T05:17:06;6.75;;;4.18;;
36745;SDS011;22715;52.182;21.206;2022-08-01T05:19:34;9.02;;;5.30;;
36745;SDS011;22715;52.182;21.206;2022-08-01T05:22:00;10.70;;;4.55;;
36745;SDS011;22715;52.182;21.206;2022-08-01T05:24:29;6.65;;;4.80;;
36745;SDS011;22715;52.182;21.206;2022-08-01T05:26:58;7.78;;;3.78;;
36745;SDS011;22715;52.182;21.206;2022-08-01T05:29:23;5.47;;;3.85;;
36745;SDS011;22715;52.182;21.206;2022-08-01T05:31:49;5.75;;;3.13;;
36745;SDS011;22715;52.182;21.206;2022-08-01T05:34:15;6.40;;;3.47;;
36745;SDS011;22715;52.182;21.206;2022-08-01T05:36:41;6.15;;;3.78;;
36745;SDS011;22715;52.182;21.206;2022-08-01T05:39:06;8.73;;;3.90;;
36745;SDS011;22715;52.182;21.206;2022-08-01T05:41:32;6.03;;;3.97;;
36745;SDS011;22715;52.182;21.206;2022-08-01T05:43:57;6.53;;;3.72;;
36745;SDS011;22715;52.182;21.206;2022-08-01T05:46:25;4.38;;;3.42;;
36745;SDS011;22715;52.182;21.206;2022-08-01T05:48:51;5.20;;;3.53;;
36745;SDS011;22715;52.182;21.206;2022-08-01T05:51:17;6.60;;;3.65;;
36745;SDS011;22715;52.182;21.206;2022-08-01T05:53:42;6.30;;;4.45;;
36745;SDS011;22715;52.182;21.206;2022-08-01T05:56:08;8.07;;;3.47;;
36745;SDS011;22715;52.182;21.206;2022-08-01T05:58:34;4.88;;;3.33;;
36745;SDS011;22715;52.182;21.206;2022-08-01T06:01:00;7.28;;;3.88;;
36745;SDS011;22715;52.182;21.206;2022-08-01T06:03:25;4.50;;;4.10;;
36745;SDS011;22715;52.182;21.206;2022-08-01T06:05:51;6.95;;;4.15;;
36745;SDS011;22715;52.182;21.206;2022-08-01T06:08:16;5.07;;;4.13;;
36745;SDS011;22715;52.182;21.206;2022-08-01T06:10:44;4.68;;;3.85;;
36745;SDS011;22715;52.182;21.206;2022-08-01T06:13:15;10.38;;;4.57;;
36745;SDS011;22715;52.182;21.206;2022-08-01T06:18:15;5.35;;;3.38;;
36745;SDS011;22715;52.182;21.206;2022-08-01T06:20:41;5.40;;;3.78;;
36745;SDS011;22715;52.182;21.206;2022-08-01T06:23:07;7.72;;;3.88;;
36745;SDS011;22715;52.182;21.206;2022-08-01T06:25:33;7.18;;;3.35;;
36745;SDS011;22715;52.182;21.206;2022-08-01T06:27:58;5.75;;;2.70;;
36745;SDS011;22715;52.182;21.206;2022-08-01T06:30:24;7.25;;;2.97;;
36745;SDS011;22715;52.182;21.206;2022-08-01T06:32:50;4.35;;;2.55;;
36745;SDS011;22715;52.182;21.206;2022-08-01T06:35:15;5.18;;;3.22;;
36745;SDS011;22715;52.182;21.206;2022-08-01T06:37:51;5.88;;;3.90;;
36745;SDS011;22715;52.182;21.206;2022-08-01T06:40:20;4.90;;;2.35;;
36745;SDS011;22715;52.182;21.206;2022-08-01T06:45:21;3.60;;;2.60;;
36745;SDS011;22715;52.182;21.206;2022-08-01T06:47:58;7.30;;;2.30;;
36745;SDS011;22715;52.182;21.206;2022-08-01T06:50:24;3.30;;;2.15;;
36745;SDS011;22715;52.182;21.206;2022-08-01T06:55:38;4.05;;;2.67;;
36745;SDS011;22715;52.182;21.206;2022-08-01T06:58:03;5.85;;;3.22;;
36745;SDS011;22715;52.182;21.206;2022-08-01T07:00:29;4.68;;;2.65;;
36745;SDS011;22715;52.182;21.206;2022-08-01T07:10:42;5.95;;;3.08;;
36745;SDS011;22715;52.182;21.206;2022-08-01T07:15:54;3.53;;;2.03;;
36745;SDS011;22715;52.182;21.206;2022-08-01T07:18:25;2.55;;;2.20;;
36745;SDS011;22715;52.182;21.206;2022-08-01T07:23:26;5.85;;;2.55;;
36745;SDS011;22715;52.182;21.206;2022-08-01T07:25:57;4.13;;;1.98;;
36745;SDS011;22715;52.182;21.206;2022-08-01T07:28:25;3.20;;;2.25;;
36745;SDS011;22715;52.182;21.206;2022-08-01T07:31:00;4.75;;;2.60;;
36745;SDS011;22715;52.182;21.206;2022-08-01T07:33:38;4.85;;;2.25;;
36745;SDS011;22715;52.182;21.206;2022-08-01T07:36:04;2.92;;;1.58;;
36745;SDS011;22715;52.182;21.206;2022-08-01T07:38:30;2.35;;;0.95;;
36745;SDS011;22715;52.182;21.206;2022-08-01T07:40:58;2.20;;;1.05;;
36745;SDS011;22715;52.182;21.206;2022-08-01T07:43:27;1.25;;;1.15;;
36745;SDS011;22715;52.182;21.206;2022-08-01T07:45:52;4.35;;;1.40;;
36745;SDS011;22715;52.182;21.206;2022-08-01T07:50:54;1.30;;;1.20;;
36745;SDS011;22715;52.182;21.206;2022-08-01T07:53:20;1.73;;;1.10;;
36745;SDS011;22715;52.182;21.206;2022-08-01T07:58:21;1.17;;;0.98;;
36745;SDS011;22715;52.182;21.206;2022-08-01T08:00:53;2.00;;;1.40;;
36745;SDS011;22715;52.182;21.206;2022-08-01T08:06:32;2.83;;;1.00;;
36745;SDS011;22715;52.182;21.206;2022-08-01T08:09:19;0.90;;;0.70;;
36745;SDS011;22715;52.182;21.206;2022-08-01T08:11:44;2.35;;;1.38;;
36745;SDS011;22715;52.182;21.206;2022-08-01T08:14:10;1.85;;;0.82;;
36745;SDS011;22715;52.182;21.206;2022-08-01T08:19:31;4.47;;;1.77;;
36745;SDS011;22715;52.182;21.206;2022-08-01T08:24:32;1.77;;;1.10;;
36745;SDS011;22715;52.182;21.206;2022-08-01T08:27:03;1.48;;;0.77;;
36745;SDS011;22715;52.182;21.206;2022-08-01T08:29:31;1.75;;;1.13;;
36745;SDS011;22715;52.182;21.206;2022-08-01T08:32:20;3.13;;;1.77;;
36745;SDS011;22715;52.182;21.206;2022-08-01T08:34:47;1.38;;;1.20;;
36745;SDS011;22715;52.182;21.206;2022-08-01T08:37:22;4.30;;;2.22;;
36745;SDS011;22715;52.182;21.206;2022-08-01T08:42:18;2.78;;;1.13;;
36745;SDS011;22715;52.182;21.206;2022-08-01T08:44:43;1.83;;;1.25;;
36745;SDS011;22715;52.182;21.206;2022-08-01T08:47:10;2.28;;;1.30;;
36745;SDS011;22715;52.182;21.206;2022-08-01T08:54:50;4.50;;;1.95;;
36745;SDS011;22715;52.182;21.206;2022-08-01T08:57:17;3.35;;;1.75;;
36745;SDS011;22715;52.182;21.206;2022-08-01T09:00:02;3.78;;;1.33;;
36745;SDS011;22715;52.182;21.206;2022-08-01T09:02:41;3.00;;;1.45;;
36745;SDS011;22715;52.182;21.206;2022-08-01T09:05:22;1.70;;;1.23;;
36745;SDS011;22715;52.182;21.206;2022-08-01T09:10:49;2.83;;;1.27;;
36745;SDS011;22715;52.182;21.206;2022-08-01T09:13:15;2.67;;;1.73;;
36745;SDS011;22715;52.182;21.206;2022-08-01T09:18:37;2.83;;;1.42;;
36745;SDS011;22715;52.182;21.206;2022-08-01T09:26:12;1.63;;;1.50;;
36745;SDS011;22715;52.182;21.206;2022-08-01T09:28:39;2.47;;;1.40;;
36745;SDS011;22715;52.182;21.206;2022-08-01T09:39:31;3.28;;;1.50;;
36745;SDS011;22715;52.182;21.206;2022-08-01T09:41:57;2.13;;;1.40;;
36745;SDS011;22715;52.182;21.206;2022-08-01T09:44:42;3.33;;;2.40;;
36745;SDS011;22715;52.182;21.206;2022-08-01T09:47:08;4.47;;;1.50;;
36745;SDS011;22715;52.182;21.206;2022-08-01T09:49:34;1.60;;;1.10;;
36745;SDS011;22715;52.182;21.206;2022-08-01T09:52:09;1.58;;;1.42;;
36745;SDS011;22715;52.182;21.206;2022-08-01T09:54:36;1.90;;;0.98;;
36745;SDS011;22715;52.182;21.206;2022-08-01T09:59:37;1.73;;;0.93;;
36745;SDS011;22715;52.182;21.206;2022-08-01T10:02:12;3.35;;;1.40;;
36745;SDS011;22715;52.182;21.206;2022-08-01T10:04:50;2.35;;;1.08;;
36745;SDS011;22715;52.182;21.206;2022-08-01T10:07:16;4.20;;;2.15;;
36745;SDS011;22715;52.182;21.206;2022-08-01T10:09:44;2.42;;;1.30;;
36745;SDS011;22715;52.182;21.206;2022-08-01T10:12:10;2.40;;;1.20;;
36745;SDS011;22715;52.182;21.206;2022-08-01T10:14:45;5.35;;;1.42;;
36745;SDS011;22715;52.182;21.206;2022-08-01T10:17:19;4.28;;;1.27;;
36745;SDS011;22715;52.182;21.206;2022-08-01T10:19:45;3.05;;;1.50;;
36745;SDS011;22715;52.182;21.206;2022-08-01T10:22:11;1.45;;;1.35;;
36745;SDS011;22715;52.182;21.206;2022-08-01T10:24:48;2.60;;;1.23;;
36745;SDS011;22715;52.182;21.206;2022-08-01T10:27:15;2.10;;;1.15;;
36745;SDS011;22715;52.182;21.206;2022-08-01T10:29:42;4.28;;;2.08;;
36745;SDS011;22715;52.182;21.206;2022-08-01T10:32:08;2.20;;;1.20;;
36745;SDS011;22715;52.182;21.206;2022-08-01T10:34:38;3.53;;;1.00;;
36745;SDS011;22715;52.182;21.206;2022-08-01T10:37:04;3.20;;;1.30;;
36745;SDS011;22715;52.182;21.206;2022-08-01T10:44:41;1.65;;;1.17;;
36745;SDS011;22715;52.182;21.206;2022-08-01T10:47:11;3.40;;;1.20;;
36745;SDS011;22715;52.182;21.206;2022-08-01T10:52:14;1.80;;;1.20;;
36745;SDS011;22715;52.182;21.206;2022-08-01T11:02:27;4.57;;;1.95;;
36745;SDS011;22715;52.182;21.206;2022-08-01T11:05:23;2.55;;;1.10;;
36745;SDS011;22715;52.182;21.206;2022-08-01T11:07:58;1.85;;;1.13;;
36745;SDS011;22715;52.182;21.206;2022-08-01T11:13:01;4.18;;;2.47;;
36745;SDS011;22715;52.182;21.206;2022-08-01T11:15:28;2.80;;;1.48;;
36745;SDS011;22715;52.182;21.206;2022-08-01T11:17:58;2.70;;;1.77;;
36745;SDS011;22715;52.182;21.206;2022-08-01T11:21:00;2.17;;;1.10;;
36745;SDS011;22715;52.182;21.206;2022-08-01T11:23:29;2.90;;;1.00;;
36745;SDS011;22715;52.182;21.206;2022-08-01T11:38:36;1.90;;;1.40;;
36745;SDS011;22715;52.182;21.206;2022-08-01T11:46:11;4.50;;;1.27;;
36745;SDS011;22715;52.182;21.206;2022-08-01T11:48:44;2.28;;;2.03;;
36745;SDS011;22715;52.182;21.206;2022-08-01T11:51:20;1.77;;;1.30;;
36745;SDS011;22715;52.182;21.206;2022-08-01T11:54:04;2.50;;;1.20;;
36745;SDS011;22715;52.182;21.206;2022-08-01T11:56:30;1.73;;;1.38;;
36745;SDS011;22715;52.182;21.206;2022-08-01T11:58:59;2.60;;;1.70;;
36745;SDS011;22715;52.182;21.206;2022-08-01T12:01:30;4.25;;;2.35;;
36745;SDS011;22715;52.182;21.206;2022-08-01T12:03:58;3.53;;;1.50;;
36745;SDS011;22715;52.182;21.206;2022-08-01T12:11:33;2.17;;;1.20;;
36745;SDS011;22715;52.182;21.206;2022-08-01T12:14:02;2.55;;;1.10;;
36745;SDS011;22715;52.182;21.206;2022-08-01T12:16:32;2.15;;;1.38;;
36745;SDS011;22715;52.182;21.206;2022-08-01T12:18:57;1.23;;;0.88;;
36745;SDS011;22715;52.182;21.206;2022-08-01T12:21:23;2.65;;;0.73;;
36745;SDS011;22715;52.182;21.206;2022-08-01T12:24:03;1.23;;;1.02;;
36745;SDS011;22715;52.182;21.206;2022-08-01T12:26:42;2.72;;;1.52;;
36745;SDS011;22715;52.182;21.206;2022-08-01T12:29:08;3.15;;;1.27;;
36745;SDS011;22715;52.182;21.206;2022-08-01T12:31:34;1.33;;;1.10;;
36745;SDS011;22715;52.182;21.206;2022-08-01T12:34:24;4.57;;;1.58;;
36745;SDS011;22715;52.182;21.206;2022-08-01T12:36:53;1.48;;;1.25;;
36745;SDS011;22715;52.182;21.206;2022-08-01T12:39:20;2.08;;;1.80;;
36745;SDS011;22715;52.182;21.206;2022-08-01T12:41:45;1.90;;;1.65;;
36745;SDS011;22715;52.182;21.206;2022-08-01T12:44:14;1.67;;;1.38;;
36745;SDS011;22715;52.182;21.206;2022-08-01T12:46:40;3.58;;;1.60;;
36745;SDS011;22715;52.182;21.206;2022-08-01T12:49:06;5.40;;;1.30;;
36745;SDS011;22715;52.182;21.206;2022-08-01T12:51:31;2.78;;;1.60;;
36745;SDS011;22715;52.182;21.206;2022-08-01T12:53:59;2.95;;;1.17;;
36745;SDS011;22715;52.182;21.206;2022-08-01T12:56:34;3.05;;;1.10;;
36745;SDS011;22715;52.182;21.206;2022-08-01T12:59:01;4.22;;;1.55;;
36745;SDS011;22715;52.182;21.206;2022-08-01T13:04:18;1.58;;;1.33;;
36745;SDS011;22715;52.182;21.206;2022-08-01T13:06:43;1.45;;;1.20;;
36745;SDS011;22715;52.182;21.206;2022-08-01T13:09:09;2.63;;;1.40;;
36745;SDS011;22715;52.182;21.206;2022-08-01T13:11:42;3.17;;;2.00;;
36745;SDS011;22715;52.182;21.206;2022-08-01T13:14:08;1.77;;;1.30;;
36745;SDS011;22715;52.182;21.206;2022-08-01T13:16:44;1.63;;;1.23;;
36745;SDS011;22715;52.182;21.206;2022-08-01T13:19:10;1.60;;;1.50;;
36745;SDS011;22715;52.182;21.206;2022-08-01T13:24:12;1.85;;;1.38;;
36745;SDS011;22715;52.182;21.206;2022-08-01T13:26:46;3.45;;;2.28;;
36745;SDS011;22715;52.182;21.206;2022-08-01T13:35:00;2.78;;;1.90;;
36745;SDS011;22715;52.182;21.206;2022-08-01T13:37:26;2.88;;;1.50;;
36745;SDS011;22715;52.182;21.206;2022-08-01T13:39:51;3.17;;;1.40;;
36745;SDS011;22715;52.182;21.206;2022-08-01T13:42:21;5.32;;;1.40;;
36745;SDS011;22715;52.182;21.206;2022-08-01T13:44:46;2.10;;;1.17;;
36745;SDS011;22715;52.182;21.206;2022-08-01T13:47:13;3.60;;;1.25;;
36745;SDS011;22715;52.182;21.206;2022-08-01T13:49:38;2.22;;;1.70;;
36745;SDS011;22715;52.182;21.206;2022-08-01T13:52:05;3.22;;;1.30;;
36745;SDS011;22715;52.182;21.206;2022-08-01T13:57:08;2.28;;;1.88;;
36745;SDS011;22715;52.182;21.206;2022-08-01T13:59:34;2.90;;;1.88;;
36745;SDS011;22715;52.182;21.206;2022-08-01T14:02:00;2.80;;;1.65;;
36745;SDS011;22715;52.182;21.206;2022-08-01T14:04:37;2.40;;;1.63;;
36745;SDS011;22715;52.182;21.206;2022-08-01T14:07:05;1.83;;;1.58;;
36745;SDS011;22715;52.182;21.206;2022-08-01T14:12:10;4.70;;;2.22;;
36745;SDS011;22715;52.182;21.206;2022-08-01T14:14:40;3.67;;;1.50;;
36745;SDS011;22715;52.182;21.206;2022-08-01T14:17:05;2.17;;;1.35;;
36745;SDS011;22715;52.182;21.206;2022-08-01T14:19:30;1.83;;;1.52;;
36745;SDS011;22715;52.182;21.206;2022-08-01T14:21:56;1.92;;;1.60;;
36745;SDS011;22715;52.182;21.206;2022-08-01T14:24:27;2.67;;;1.73;;
36745;SDS011;22715;52.182;21.206;2022-08-01T14:26:53;2.05;;;1.60;;
36745;SDS011;22715;52.182;21.206;2022-08-01T14:29:18;4.90;;;1.67;;
36745;SDS011;22715;52.182;21.206;2022-08-01T14:31:45;1.90;;;1.70;;
36745;SDS011;22715;52.182;21.206;2022-08-01T14:34:11;3.17;;;1.83;;
36745;SDS011;22715;52.182;21.206;2022-08-01T14:36:57;2.88;;;2.10;;
36745;SDS011;22715;52.182;21.206;2022-08-01T14:39:24;4.05;;;2.25;;
36745;SDS011;22715;52.182;21.206;2022-08-01T14:41:50;2.72;;;2.13;;
36745;SDS011;22715;52.182;21.206;2022-08-01T14:44:15;2.58;;;2.38;;
36745;SDS011;22715;52.182;21.206;2022-08-01T14:46:41;2.72;;;2.13;;
36745;SDS011;22715;52.182;21.206;2022-08-01T14:49:09;2.45;;;2.25;;
36745;SDS011;22715;52.182;21.206;2022-08-01T14:51:34;4.05;;;2.85;;
36745;SDS011;22715;52.182;21.206;2022-08-01T14:54:01;2.45;;;2.25;;
36745;SDS011;22715;52.182;21.206;2022-08-01T14:56:27;4.60;;;2.50;;
36745;SDS011;22715;52.182;21.206;2022-08-01T14:58:55;4.35;;;2.47;;
36745;SDS011;22715;52.182;21.206;2022-08-01T15:01:24;2.60;;;2.35;;
36745;SDS011;22715;52.182;21.206;2022-08-01T15:03:49;3.47;;;2.10;;
36745;SDS011;22715;52.182;21.206;2022-08-01T15:06:17;4.35;;;2.50;;
36745;SDS011;22715;52.182;21.206;2022-08-01T15:08:44;3.58;;;3.28;;
36745;SDS011;22715;52.182;21.206;2022-08-01T15:11:10;4.25;;;3.03;;
36745;SDS011;22715;52.182;21.206;2022-08-01T15:13:36;2.25;;;2.05;;
36745;SDS011;22715;52.182;21.206;2022-08-01T15:16:01;7.38;;;3.00;;
36745;SDS011;22715;52.182;21.206;2022-08-01T15:18:27;4.20;;;3.05;;
36745;SDS011;22715;52.182;21.206;2022-08-01T15:20:56;3.38;;;3.13;;
36745;SDS011;22715;52.182;21.206;2022-08-01T15:23:22;4.40;;;2.90;;
36745;SDS011;22715;52.182;21.206;2022-08-01T15:25:47;3.75;;;2.70;;
36745;SDS011;22715;52.182;21.206;2022-08-01T15:28:13;2.60;;;2.10;;
36745;SDS011;22715;52.182;21.206;2022-08-01T15:30:38;2.28;;;2.08;;
36745;SDS011;22715;52.182;21.206;2022-08-01T15:33:03;2.10;;;2.00;;
36745;SDS011;22715;52.182;21.206;2022-08-01T15:35:29;2.50;;;2.10;;
36745;SDS011;22715;52.182;21.206;2022-08-01T15:37:54;2.75;;;1.90;;
36745;SDS011;22715;52.182;21.206;2022-08-01T15:40:20;3.65;;;2.70;;
36745;SDS011;22715;52.182;21.206;2022-08-01T15:42:45;3.83;;;2.20;;
36745;SDS011;22715;52.182;21.206;2022-08-01T15:45:20;2.20;;;1.95;;
36745;SDS011;22715;52.182;21.206;2022-08-01T15:47:46;3.17;;;2.20;;
36745;SDS011;22715;52.182;21.206;2022-08-01T15:50:11;4.82;;;2.00;;
36745;SDS011;22715;52.182;21.206;2022-08-01T15:52:40;3.72;;;3.33;;
36745;SDS011;22715;52.182;21.206;2022-08-01T15:55:05;2.85;;;2.55;;
36745;SDS011;22715;52.182;21.206;2022-08-01T15:57:37;2.53;;;2.33;;
36745;SDS011;22715;52.182;21.206;2022-08-01T16:00:03;2.80;;;2.60;;
36745;SDS011;22715;52.182;21.206;2022-08-01T16:02:28;3.83;;;3.03;;
36745;SDS011;22715;52.182;21.206;2022-08-01T16:04:54;7.07;;;2.63;;
36745;SDS011;22715;52.182;21.206;2022-08-01T16:07:19;3.75;;;2.78;;
36745;SDS011;22715;52.182;21.206;2022-08-01T16:09:45;3.10;;;2.75;;
36745;SDS011;22715;52.182;21.206;2022-08-01T16:12:11;3.63;;;3.35;;
36745;SDS011;22715;52.182;21.206;2022-08-01T16:14:37;3.15;;;2.55;;
36745;SDS011;22715;52.182;21.206;2022-08-01T16:17:02;2.85;;;2.65;;
36745;SDS011;22715;52.182;21.206;2022-08-01T16:19:28;3.40;;;3.20;;
36745;SDS011;22715;52.182;21.206;2022-08-01T16:21:53;4.70;;;2.70;;
36745;SDS011;22715;52.182;21.206;2022-08-01T16:24:18;3.20;;;2.33;;
36745;SDS011;22715;52.182;21.206;2022-08-01T16:26:44;3.30;;;2.22;;
36745;SDS011;22715;52.182;21.206;2022-08-01T16:29:09;4.35;;;2.45;;
36745;SDS011;22715;52.182;21.206;2022-08-01T16:31:35;3.83;;;1.92;;
36745;SDS011;22715;52.182;21.206;2022-08-01T16:34:00;3.60;;;2.47;;
36745;SDS011;22715;52.182;21.206;2022-08-01T16:36:26;2.92;;;2.33;;
36745;SDS011;22715;52.182;21.206;2022-08-01T16:38:51;2.75;;;2.25;;
36745;SDS011;22715;52.182;21.206;2022-08-01T16:41:16;3.05;;;2.75;;
36745;SDS011;22715;52.182;21.206;2022-08-01T16:43:42;2.53;;;2.17;;
36745;SDS011;22715;52.182;21.206;2022-08-01T16:46:08;2.97;;;2.67;;
36745;SDS011;22715;52.182;21.206;2022-08-01T16:48:34;2.72;;;2.53;;
36745;SDS011;22715;52.182;21.206;2022-08-01T16:51:00;2.78;;;2.50;;
36745;SDS011;22715;52.182;21.206;2022-08-01T16:53:25;3.10;;;2.60;;
36745;SDS011;22715;52.182;21.206;2022-08-01T16:55:50;3.15;;;2.85;;
36745;SDS011;22715;52.182;21.206;2022-08-01T16:58:17;2.97;;;2.67;;
36745;SDS011;22715;52.182;21.206;2022-08-01T17:00:42;5.18;;;3.10;;
36745;SDS011;22715;52.182;21.206;2022-08-01T17:03:09;2.65;;;2.42;;
36745;SDS011;22715;52.182;21.206;2022-08-01T17:05:34;2.63;;;2.42;;
36745;SDS011;22715;52.182;21.206;2022-08-01T17:08:00;10.27;;;3.67;;
36745;SDS011;22715;52.182;21.206;2022-08-01T17:10:25;2.78;;;1.95;;
36745;SDS011;22715;52.182;21.206;2022-08-01T17:12:50;2.95;;;2.47;;
36745;SDS011;22715;52.182;21.206;2022-08-01T17:15:16;3.72;;;2.30;;
36745;SDS011;22715;52.182;21.206;2022-08-01T17:17:41;4.25;;;2.42;;
36745;SDS011;22715;52.182;21.206;2022-08-01T17:20:06;4.45;;;2.50;;
36745;SDS011;22715;52.182;21.206;2022-08-01T17:22:32;3.50;;;1.98;;
36745;SDS011;22715;52.182;21.206;2022-08-01T17:24:57;2.20;;;2.00;;
36745;SDS011;22715;52.182;21.206;2022-08-01T17:27:22;3.00;;;2.30;;
36745;SDS011;22715;52.182;21.206;2022-08-01T17:29:48;3.35;;;1.90;;
36745;SDS011;22715;52.182;21.206;2022-08-01T17:32:13;2.17;;;1.92;;
36745;SDS011;22715;52.182;21.206;2022-08-01T17:34:39;2.55;;;2.10;;
36745;SDS011;22715;52.182;21.206;2022-08-01T17:37:04;2.53;;;2.33;;
36745;SDS011;22715;52.182;21.206;2022-08-01T17:39:30;3.17;;;2.55;;
36745;SDS011;22715;52.182;21.206;2022-08-01T17:41:55;1.92;;;1.73;;
36745;SDS011;22715;52.182;21.206;2022-08-01T17:44:20;5.15;;;3.03;;
36745;SDS011;22715;52.182;21.206;2022-08-01T17:46:46;1.85;;;1.42;;
36745;SDS011;22715;52.182;21.206;2022-08-01T17:49:11;3.15;;;2.78;;
36745;SDS011;22715;52.182;21.206;2022-08-01T17:51:36;2.45;;;1.90;;
36745;SDS011;22715;52.182;21.206;2022-08-01T17:54:02;2.25;;;2.05;;
36745;SDS011;22715;52.182;21.206;2022-08-01T17:56:27;2.65;;;2.33;;
36745;SDS011;22715;52.182;21.206;2022-08-01T17:58:53;2.45;;;2.25;;
36745;SDS011;22715;52.182;21.206;2022-08-01T18:01:18;3.53;;;2.78;;
36745;SDS011;22715;52.182;21.206;2022-08-01T18:03:43;4.38;;;3.10;;
36745;SDS011;22715;52.182;21.206;2022-08-01T18:06:09;3.00;;;2.25;;
36745;SDS011;22715;52.182;21.206;2022-08-01T18:08:35;6.88;;;3.13;;
36745;SDS011;22715;52.182;21.206;2022-08-01T18:11:00;2.30;;;2.10;;
36745;SDS011;22715;52.182;21.206;2022-08-01T18:13:25;3.63;;;2.28;;
36745;SDS011;22715;52.182;21.206;2022-08-01T18:15:51;3.70;;;3.15;;
36745;SDS011;22715;52.182;21.206;2022-08-01T18:18:16;2.80;;;2.60;;
36745;SDS011;22715;52.182;21.206;2022-08-01T18:20:44;4.15;;;2.90;;
36745;SDS011;22715;52.182;21.206;2022-08-01T18:23:09;2.65;;;2.45;;
36745;SDS011;22715;52.182;21.206;2022-08-01T18:25:38;2.63;;;2.42;;
36745;SDS011;22715;52.182;21.206;2022-08-01T18:28:04;4.63;;;3.28;;
36745;SDS011;22715;52.182;21.206;2022-08-01T18:30:29;2.60;;;2.30;;
36745;SDS011;22715;52.182;21.206;2022-08-01T18:32:54;4.65;;;3.58;;
36745;SDS011;22715;52.182;21.206;2022-08-01T18:35:20;5.22;;;2.90;;
36745;SDS011;22715;52.182;21.206;2022-08-01T18:37:46;5.68;;;4.28;;
36745;SDS011;22715;52.182;21.206;2022-08-01T18:40:15;4.40;;;3.25;;